Time;durP1;ratioP1;P1;durP2;ratioP2;P2;SDS_P1;SDS_P2;PMS_P1;PMS_P2;Temp;Humidity;BMP_temperature;BMP_pressure;BME280_temperature;BME280_humidity;BME280_pressure;Samples;Min_cycle;Max_cycle;Signal;HPM_P1;HPM_P2
2021/01/31 00:00:28;;;;;;;26.40;18.65;;;0.50;90.90;;;;;;5072111;28;20411;-69
2021/01/31 00:02:59;;;;;;;27.23;18.90;;;0.40;91.10;;;;;;5075490;28;20480;-69
2021/01/31 00:05:26;;;;;;;28.27;19.30;;;0.40;90.90;;;;;;5072305;28;20419;-69
2021/01/31 00:07:52;;;;;;;28.15;18.98;;;0.40;90.90;;;;;;5076056;28;20449;-69
2021/01/31 00:10:23;;;;;;;29.13;19.47;;;0.40;91.00;;;;;;5072123;28;20407;-69
2021/01/31 00:12:50;;;;;;;29.57;20.17;;;0.40;91.40;;;;;;5076391;28;20856;-69
2021/01/31 00:15:19;;;;;;;28.02;20.45;;;0.30;91.60;;;;;;5073064;28;20408;-69
2021/01/31 00:17:45;;;;;;;29.80;20.08;;;0.40;91.20;;;;;;5076321;28;20915;-69
2021/01/31 00:20:14;;;;;;;30.42;20.73;;;0.30;91.60;;;;;;5076075;28;20408;-69
2021/01/31 00:22:41;;;;;;;29.88;21.15;;;0.30;91.80;;;;;;5072828;28;20522;-69
2021/01/31 00:25:09;;;;;;;29.03;20.23;;;0.30;92.20;;;;;;5107151;28;20485;-69
2021/01/31 00:27:35;;;;;;;29.92;20.25;;;0.30;92.00;;;;;;5083690;28;20473;-69
2021/01/31 00:30:17;;;;;;;31.38;20.35;;;0.30;91.30;;;;;;5092383;28;20402;-69
2021/01/31 00:32:45;;;;;;;29.87;21.43;;;0.30;91.90;;;;;;5073715;28;20412;-69
2021/01/31 00:35:12;;;;;;;27.80;20.13;;;0.20;92.10;;;;;;5072149;28;20431;-69
2021/01/31 00:37:41;;;;;;;27.08;18.98;;;0.20;91.80;;;;;;5079775;28;20885;-69
2021/01/31 00:40:09;;;;;;;27.10;19.08;;;0.20;91.80;;;;;;5092265;28;20409;-69
2021/01/31 00:42:35;;;;;;;28.42;19.08;;;0.20;91.70;;;;;;5079571;28;21167;-69
2021/01/31 00:45:08;;;;;;;26.15;18.35;;;0.20;91.70;;;;;;5071616;28;20461;-69
2021/01/31 00:47:34;;;;;;;26.38;18.42;;;0.10;91.60;;;;;;5070047;28;20435;-69
2021/01/31 00:50:01;;;;;;;26.15;18.08;;;0.20;91.50;;;;;;5073055;28;21080;-69
2021/01/31 00:52:27;;;;;;;27.33;18.53;;;0.20;91.40;;;;;;5069504;28;20683;-69
2021/01/31 00:54:53;;;;;;;27.65;18.88;;;0.20;91.40;;;;;;5072654;28;20504;-69
2021/01/31 00:57:20;;;;;;;28.52;18.83;;;0.10;91.60;;;;;;5071884;28;20456;-69
2021/01/31 00:59:47;;;;;;;28.80;19.52;;;0.10;91.60;;;;;;5088080;28;20513;-69
2021/01/31 01:02:19;;;;;;;27.70;18.88;;;0.10;91.70;;;;;;5092875;28;20445;-70
2021/01/31 01:04:47;;;;;;;27.50;19.00;;;0.10;91.60;;;;;;5091487;28;20423;-69
2021/01/31 01:07:17;;;;;;;28.90;20.10;;;0.20;91.30;;;;;;5092530;28;20446;-70
2021/01/31 01:09:45;;;;;;;28.50;20.42;;;0.20;91.60;;;;;;5092352;28;20915;-70
2021/01/31 01:12:12;;;;;;;32.53;20.80;;;0.10;91.80;;;;;;5092266;28;20467;-69
2021/01/31 01:14:38;;;;;;;29.60;20.87;;;0.10;91.90;;;;;;5091357;28;20912;-70
2021/01/31 01:17:05;;;;;;;29.45;20.88;;;0.00;92.30;;;;;;5092435;28;20402;-69
2021/01/31 01:19:32;;;;;;;32.28;21.60;;;0.00;92.40;;;;;;5092446;28;20406;-70
2021/01/31 01:21:58;;;;;;;30.48;21.05;;;0.00;92.70;;;;;;5092473;28;20804;-70
2021/01/31 01:24:25;;;;;;;32.25;21.52;;;0.00;92.70;;;;;;5091693;28;20398;-69
2021/01/31 01:26:52;;;;;;;31.65;21.08;;;0.00;92.70;;;;;;5091245;28;20460;-70
2021/01/31 01:29:18;;;;;;;30.17;21.47;;;0.00;92.70;;;;;;5091385;28;20402;-69
2021/01/31 01:31:45;;;;;;;33.73;22.63;;;0.00;92.50;;;;;;5092421;28;20406;-69
2021/01/31 01:34:12;;;;;;;31.15;21.75;;;0.00;92.70;;;;;;5092318;28;20426;-70
2021/01/31 01:36:38;;;;;;;34.85;23.00;;;0.00;92.60;;;;;;5089974;28;20459;-69
2021/01/31 01:39:05;;;;;;;34.88;23.33;;;0.00;92.80;;;;;;5092348;28;20402;-70
2021/01/31 01:41:36;;;;;;;32.92;23.17;;;0.10;92.70;;;;;;5091210;28;20888;-70
2021/01/31 01:44:03;;;;;;;36.90;23.88;;;0.00;92.60;;;;;;5074406;28;20813;-70
2021/01/31 01:46:35;;;;;;;34.37;23.87;;;0.00;92.50;;;;;;5091731;28;20488;-69
2021/01/31 01:49:14;;;;;;;33.65;23.05;;;-0.10;92.60;;;;;;5091669;28;20847;-69
2021/01/31 01:51:47;;;;;;;33.73;23.53;;;0.00;92.40;;;;;;5091772;28;20897;-70
2021/01/31 01:54:23;;;;;;;33.75;22.85;;;0.00;92.30;;;;;;5091754;28;20410;-70
2021/01/31 01:56:56;;;;;;;33.13;22.67;;;0.10;91.80;;;;;;5091751;28;20398;-70
2021/01/31 01:59:28;;;;;;;33.55;23.33;;;0.00;92.00;;;;;;5090638;28;20855;-70
2021/01/31 02:02:08;;;;;;;32.70;22.58;;;-0.10;92.50;;;;;;5090483;28;20488;-70
2021/01/31 02:04:37;;;;;;;34.53;23.05;;;-0.10;92.60;;;;;;5090816;28;20470;-70
2021/01/31 02:07:04;;;;;;;33.63;23.07;;;-0.20;92.60;;;;;;5091306;28;20443;-69
2021/01/31 02:09:31;;;;;;;33.00;22.77;;;0.00;92.00;;;;;;5091358;28;20774;-69
2021/01/31 02:12:01;;;;;;;33.60;22.15;;;-0.10;92.20;;;;;;5090239;28;20854;-70
2021/01/31 02:14:28;;;;;;;32.20;21.70;;;-0.10;92.20;;;;;;5091548;28;20406;-69
2021/01/31 02:17:12;;;;;;;31.70;21.98;;;-0.10;92.20;;;;;;5091532;28;20459;-70
2021/01/31 02:20:00;;;;;;;32.25;22.67;;;-0.10;92.40;;;;;;5090353;28;20417;-70
2021/01/31 02:22:49;;;;;;;33.40;22.23;;;-0.20;92.30;;;;;;5090246;28;20429;-69
2021/01/31 02:25:22;;;;;;;32.90;22.00;;;-0.20;92.70;;;;;;5091234;28;20418;-70
2021/01/31 02:28:26;;;;;;;33.38;22.58;;;-0.20;92.60;;;;;;5091299;28;20405;-69
2021/01/31 02:30:55;;;;;;;32.83;22.90;;;-0.30;92.60;;;;;;5032099;28;20819;-69
2021/01/31 02:33:43;;;;;;;35.50;22.95;;;-0.30;92.50;;;;;;5080115;28;20398;-69
2021/01/31 02:36:13;;;;;;;35.65;23.00;;;-0.30;92.80;;;;;;5090044;28;20398;-69
2021/01/31 02:38:50;;;;;;;34.42;23.13;;;-0.30;92.80;;;;;;5091401;28;20393;-69
2021/01/31 02:41:33;;;;;;;32.13;21.92;;;-0.30;92.90;;;;;;5091131;28;20401;-70
2021/01/31 02:44:07;;;;;;;33.53;22.88;;;-0.30;92.70;;;;;;5090580;28;20409;-69
2021/01/31 02:46:59;;;;;;;32.28;22.15;;;-0.30;92.60;;;;;;5090239;28;20680;-70
2021/01/31 02:49:49;;;;;;;31.70;22.33;;;-0.30;92.30;;;;;;5090831;28;20402;-69
2021/01/31 02:52:55;;;;;;;32.30;22.35;;;-0.30;92.60;;;;;;5090867;28;20421;-69
2021/01/31 02:55:47;;;;;;;32.85;22.00;;;-0.30;92.70;;;;;;5081428;28;20409;-69
2021/01/31 02:58:23;;;;;;;35.10;23.47;;;-0.30;92.70;;;;;;5090216;28;20475;-69
2021/01/31 03:01:05;;;;;;;34.45;23.55;;;-0.40;92.70;;;;;;5073382;28;20502;-70
2021/01/31 03:03:38;;;;;;;35.50;23.70;;;-0.40;92.90;;;;;;5090639;28;20402;-69
2021/01/31 03:06:10;;;;;;;36.63;24.35;;;-0.40;92.70;;;;;;5090244;28;20413;-70
2021/01/31 03:08:43;;;;;;;36.67;24.63;;;-0.30;93.00;;;;;;5091049;28;20441;-69
2021/01/31 03:11:24;;;;;;;37.58;24.73;;;-0.40;92.90;;;;;;5090632;28;20402;-69
2021/01/31 03:14:12;;;;;;;38.63;25.37;;;-0.40;92.70;;;;;;5089833;28;20402;-70
2021/01/31 03:16:41;;;;;;;37.22;25.08;;;-0.30;92.90;;;;;;5089632;28;20489;-69
2021/01/31 03:19:21;;;;;;;38.17;25.17;;;-0.30;93.00;;;;;;5090988;28;20398;-70
2021/01/31 03:21:52;;;;;;;38.22;25.35;;;-0.40;92.80;;;;;;5089341;28;20519;-69
2021/01/31 03:24:29;;;;;;;38.65;25.35;;;-0.40;92.90;;;;;;5090392;28;20862;-69
2021/01/31 03:27:14;;;;;;;38.28;25.75;;;-0.30;92.60;;;;;;5090205;28;20778;-69
2021/01/31 03:29:41;;;;;;;38.75;26.25;;;-0.40;92.70;;;;;;5090115;28;20398;-69
2021/01/31 03:32:21;;;;;;;37.63;25.37;;;-0.40;92.90;;;;;;5090181;28;20846;-69
2021/01/31 03:34:59;;;;;;;38.42;25.90;;;-0.40;93.00;;;;;;5090062;28;20428;-69
2021/01/31 03:37:36;;;;;;;39.17;25.83;;;-0.40;92.80;;;;;;5090314;28;20425;-69
2021/01/31 03:40:08;;;;;;;41.28;26.60;;;-0.40;92.90;;;;;;5089032;28;20532;-70
2021/01/31 03:42:35;;;;;;;36.47;25.27;;;-0.40;92.90;;;;;;5089085;28;20884;-70
2021/01/31 03:45:06;;;;;;;38.85;25.80;;;-0.30;92.70;;;;;;5090359;28;20409;-70
2021/01/31 03:47:59;;;;;;;38.63;26.37;;;-0.30;92.80;;;;;;5090259;28;20394;-70
2021/01/31 03:50:26;;;;;;;40.25;26.42;;;-0.40;92.70;;;;;;5090197;28;20406;-70
2021/01/31 03:52:55;;;;;;;39.92;26.67;;;-0.30;92.80;;;;;;5089215;28;20406;-70
2021/01/31 03:55:21;;;;;;;38.67;25.92;;;-0.40;92.80;;;;;;5089601;28;20914;-70
2021/01/31 03:57:52;;;;;;;38.40;26.50;;;-0.40;92.90;;;;;;5089937;28;20459;-70
2021/01/31 04:00:24;;;;;;;37.78;25.98;;;-0.40;93.00;;;;;;5091055;28;20413;-70
2021/01/31 04:03:06;;;;;;;37.90;25.17;;;-0.30;92.70;;;;;;5092908;28;20499;-70
2021/01/31 04:05:35;;;;;;;38.77;25.50;;;-0.30;92.60;;;;;;5092564;28;20472;-70
2021/01/31 04:08:06;;;;;;;42.40;26.75;;;-0.40;92.80;;;;;;5094009;28;20500;-70
2021/01/31 04:10:33;;;;;;;39.57;26.10;;;-0.40;92.70;;;;;;5093874;28;20467;-70
2021/01/31 04:13:02;;;;;;;38.17;25.25;;;-0.40;93.00;;;;;;5093085;28;20838;-70
2021/01/31 04:15:36;;;;;;;39.03;25.93;;;-0.40;92.70;;;;;;5093846;28;20805;-70
2021/01/31 04:18:04;;;;;;;37.70;25.38;;;-0.40;92.80;;;;;;5093594;28;20402;-70
2021/01/31 04:20:32;;;;;;;38.90;25.10;;;-0.40;93.00;;;;;;5093955;28;20406;-70
2021/01/31 04:22:59;;;;;;;36.50;25.40;;;-0.50;92.90;;;;;;5093341;28;20430;-70
2021/01/31 04:25:26;;;;;;;39.00;26.13;;;-0.50;92.90;;;;;;5093581;28;20471;-70
2021/01/31 04:27:55;;;;;;;40.60;25.17;;;-0.40;93.10;;;;;;5093573;28;20483;-70
2021/01/31 04:30:22;;;;;;;38.00;24.70;;;-0.50;93.20;;;;;;5093031;28;20881;-70
2021/01/31 04:32:48;;;;;;;40.30;25.50;;;-0.50;93.30;;;;;;5093731;28;20463;-70
2021/01/31 04:35:19;;;;;;;40.05;24.83;;;-0.50;93.30;;;;;;5093621;28;20410;-70
2021/01/31 04:37:46;;;;;;;35.17;23.80;;;-0.50;93.10;;;;;;5093443;28;20402;-70
2021/01/31 04:40:17;;;;;;;35.75;23.42;;;-0.50;93.20;;;;;;5093358;28;20418;-70
2021/01/31 04:42:46;;;;;;;38.70;23.83;;;-0.50;93.10;;;;;;5092200;28;20433;-70
2021/01/31 04:45:14;;;;;;;35.90;23.30;;;-0.60;93.00;;;;;;5093785;28;20421;-70
2021/01/31 04:47:56;;;;;;;36.15;23.13;;;-0.60;93.20;;;;;;5093138;28;21148;-70
2021/01/31 04:50:28;;;;;;;36.78;24.45;;;-0.60;93.20;;;;;;5093462;28;20489;-70
2021/01/31 04:53:06;;;;;;;33.00;22.33;;;-0.60;93.30;;;;;;5093056;28;20897;-70
2021/01/31 04:55:58;;;;;;;35.88;23.23;;;-0.60;93.20;;;;;;5091789;28;20414;-70
2021/01/31 04:58:47;;;;;;;36.53;23.98;;;-0.60;93.00;;;;;;5092576;28;20471;-70
2021/01/31 05:01:24;;;;;;;36.55;23.35;;;-0.70;93.20;;;;;;5091801;28;20855;-70
2021/01/31 05:04:04;;;;;;;35.80;22.98;;;-0.70;93.40;;;;;;5091501;28;20829;-70
2021/01/31 05:06:47;;;;;;;33.13;22.55;;;-0.60;93.10;;;;;;5092720;28;20418;-70
2021/01/31 05:09:19;;;;;;;35.45;22.83;;;-0.60;93.00;;;;;;5092726;28;20404;-70
2021/01/31 05:12:09;;;;;;;35.93;23.33;;;-0.70;93.00;;;;;;5092427;28;20405;-70
2021/01/31 05:14:45;;;;;;;35.40;23.15;;;-0.70;93.30;;;;;;5093061;28;20402;-70
2021/01/31 05:17:14;;;;;;;36.47;23.45;;;-0.70;93.30;;;;;;5092393;28;20629;-70
2021/01/31 05:19:41;;;;;;;34.00;22.80;;;-0.70;93.60;;;;;;5091403;28;20453;-70
2021/01/31 05:22:11;;;;;;;36.97;23.58;;;-0.70;93.60;;;;;;5091422;28;20452;-70
2021/01/31 05:24:38;;;;;;;35.67;23.98;;;-0.70;93.60;;;;;;5091326;28;20407;-70
2021/01/31 05:27:07;;;;;;;34.15;23.35;;;-0.70;93.40;;;;;;5092048;28;20405;-70
2021/01/31 05:29:39;;;;;;;36.67;23.55;;;-0.70;93.40;;;;;;5092126;28;20398;-70
2021/01/31 05:32:12;;;;;;;35.97;23.33;;;-0.70;93.40;;;;;;5092326;28;20401;-70
2021/01/31 05:34:45;;;;;;;33.45;22.48;;;-0.70;93.40;;;;;;5092639;28;20409;-70
2021/01/31 05:37:17;;;;;;;36.78;23.70;;;-0.70;93.20;;;;;;5092363;28;20410;-70
2021/01/31 05:40:03;;;;;;;38.10;23.73;;;-0.70;92.90;;;;;;5092220;28;20826;-70
2021/01/31 05:42:39;;;;;;;32.90;22.38;;;-0.70;93.30;;;;;;5090902;28;20426;-70
2021/01/31 05:45:07;;;;;;;36.50;23.80;;;-0.70;92.80;;;;;;5092060;28;20490;-69
2021/01/31 05:47:38;;;;;;;36.75;24.25;;;-0.70;92.80;;;;;;5091198;28;20494;-69
2021/01/31 05:50:29;;;;;;;38.38;24.13;;;-0.60;92.70;;;;;;5091647;28;20827;-69
2021/01/31 05:52:55;;;;;;;37.92;25.30;;;-0.70;92.50;;;;;;5091764;28;20436;-69
2021/01/31 05:55:25;;;;;;;37.87;25.13;;;-0.80;92.80;;;;;;5091992;28;20758;-69
2021/01/31 05:57:53;;;;;;;37.85;24.88;;;-0.80;92.70;;;;;;5090745;28;20417;-69
2021/01/31 06:00:31;;;;;;;37.28;24.67;;;-0.80;92.80;;;;;;5090809;28;20410;-69
2021/01/31 06:03:08;;;;;;;37.65;24.38;;;-0.80;92.60;;;;;;5090829;28;20479;-69
2021/01/31 06:05:36;;;;;;;39.28;24.80;;;-0.80;92.30;;;;;;5091907;28;20443;-69
2021/01/31 06:08:10;;;;;;;37.22;24.65;;;-0.80;92.60;;;;;;5090713;28;20394;-69
2021/01/31 06:10:39;;;;;;;38.40;24.23;;;-0.80;92.60;;;;;;5090545;28;20846;-69
2021/01/31 06:13:19;;;;;;;40.25;24.88;;;-0.80;92.60;;;;;;5091376;28;20818;-69
2021/01/31 06:15:55;;;;;;;38.53;25.63;;;-0.90;92.80;;;;;;5090293;28;20858;-69
2021/01/31 06:18:34;;;;;;;39.47;25.25;;;-0.80;93.10;;;;;;5091478;28;20840;-69
2021/01/31 06:21:14;;;;;;;39.95;25.67;;;-0.90;93.00;;;;;;5090385;28;20428;-69
2021/01/31 06:23:44;;;;;;;39.03;25.45;;;-0.90;93.10;;;;;;5089424;28;20589;-69
2021/01/31 06:26:27;;;;;;;40.17;25.35;;;-0.90;93.30;;;;;;5090675;28;20430;-69
2021/01/31 06:29:01;;;;;;;39.05;25.63;;;-0.80;93.20;;;;;;5090523;28;20393;-69
2021/01/31 06:31:49;;;;;;;39.15;25.73;;;-0.80;93.20;;;;;;5050787;28;20492;-69
2021/01/31 06:34:15;;;;;;;38.38;25.48;;;-0.80;92.90;;;;;;5051071;28;20448;-69
2021/01/31 06:37:07;;;;;;;41.65;25.80;;;-0.80;92.80;;;;;;5051150;28;20423;-69
2021/01/31 06:40:19;;;;;;;38.13;25.25;;;-0.80;92.90;;;;;;5050259;28;20401;-69
2021/01/31 06:43:00;;;;;;;37.33;24.02;;;-0.80;93.10;;;;;;5049470;28;20888;-69
2021/01/31 06:45:38;;;;;;;35.63;23.53;;;-0.80;92.70;;;;;;5067783;28;20415;-69
2021/01/31 06:48:22;;;;;;;34.00;22.17;;;-0.80;92.20;;;;;;5069943;28;20399;-69
2021/01/31 06:51:13;;;;;;;33.13;22.23;;;-0.80;92.20;;;;;;5070815;28;20404;-69
2021/01/31 06:53:51;;;;;;;32.83;22.00;;;-0.80;92.20;;;;;;5070026;28;20493;-69
2021/01/31 06:57:06;;;;;;;31.25;21.35;;;-0.90;92.00;;;;;;5062823;28;20419;-69
2021/01/31 07:00:03;;;;;;;34.53;21.65;;;-0.80;91.80;;;;;;5041141;28;20421;-69
2021/01/31 07:02:30;;;;;;;33.72;21.63;;;-0.70;91.20;;;;;;5066150;28;20428;-69
2021/01/31 07:05:32;;;;;;;33.38;22.40;;;-0.70;91.10;;;;;;5069497;28;20446;-69
2021/01/31 07:08:20;;;;;;;37.45;23.65;;;-0.80;91.30;;;;;;5066349;28;20592;-69
2021/01/31 07:11:10;;;;;;;40.78;25.20;;;-0.80;91.40;;;;;;5070355;28;20383;-69
2021/01/31 07:13:54;;;;;;;38.38;25.17;;;-0.90;91.20;;;;;;5066694;28;20485;-69
2021/01/31 07:16:26;;;;;;;34.30;23.08;;;-0.80;91.50;;;;;;5070480;28;20759;-69
2021/01/31 07:19:16;;;;;;;37.97;24.05;;;-0.80;91.30;;;;;;5065814;28;20443;-69
2021/01/31 07:21:49;;;;;;;33.15;21.35;;;-0.70;91.10;;;;;;5069970;28;20410;-69
2021/01/31 07:24:24;;;;;;;32.97;21.67;;;-0.70;90.70;;;;;;5065724;28;20880;-69
2021/01/31 07:26:56;;;;;;;32.30;21.48;;;-0.70;91.00;;;;;;5068948;28;20785;-69
2021/01/31 07:29:38;;;;;;;62.05;42.67;;;-0.70;91.10;;;;;;5066824;28;20504;-69
2021/01/31 07:32:13;;;;;;;36.47;24.48;;;-0.70;90.90;;;;;;5049244;28;20475;-69
2021/01/31 07:34:46;;;;;;;33.30;21.63;;;-0.70;91.00;;;;;;5058200;28;20950;-69
2021/01/31 07:37:16;;;;;;;32.08;20.83;;;-0.70;90.70;;;;;;5073280;28;20415;-69
2021/01/31 07:39:50;;;;;;;31.00;20.75;;;-0.70;90.50;;;;;;5076286;28;20402;-69
2021/01/31 07:42:19;;;;;;;31.13;20.87;;;-0.60;91.00;;;;;;5090631;28;21220;-69
2021/01/31 07:44:47;;;;;;;32.20;21.48;;;-0.60;91.00;;;;;;5085941;28;20497;-69
2021/01/31 07:47:13;;;;;;;31.27;20.70;;;-0.60;90.60;;;;;;5073053;28;20403;-69
2021/01/31 07:49:55;;;;;;;30.90;20.33;;;-0.60;90.90;;;;;;5080034;28;20492;-69
2021/01/31 07:52:42;;;;;;;33.33;20.85;;;-0.50;90.60;;;;;;5073434;28;20506;-69
2021/01/31 07:55:18;;;;;;;33.53;20.90;;;-0.50;90.00;;;;;;5068810;28;20439;-69
2021/01/31 07:58:06;;;;;;;32.13;20.98;;;-0.50;90.10;;;;;;5065067;28;20431;-69
2021/01/31 08:00:43;;;;;;;33.97;21.30;;;-0.40;90.40;;;;;;5065821;28;20473;-69
2021/01/31 08:03:36;;;;;;;33.30;21.17;;;-0.40;90.50;;;;;;5068787;28;20717;-69
2021/01/31 08:06:19;;;;;;;30.97;20.43;;;-0.30;89.50;;;;;;5073293;28;20477;-69
2021/01/31 08:08:47;;;;;;;31.63;20.58;;;-0.30;89.70;;;;;;5065401;28;20479;-68
2021/01/31 08:11:17;;;;;;;32.75;20.23;;;-0.30;90.00;;;;;;5062797;28;20497;-68
2021/01/31 08:13:50;;;;;;;36.22;21.75;;;-0.20;90.00;;;;;;5069759;28;20439;-68
2021/01/31 08:16:41;;;;;;;32.30;21.20;;;-0.10;89.40;;;;;;5072707;28;20427;-68
2021/01/31 08:19:08;;;;;;;30.02;19.42;;;-0.10;89.30;;;;;;5070393;28;20866;-68
2021/01/31 08:22:02;;;;;;;30.65;19.85;;;0.00;88.00;;;;;;5072281;28;20423;-68
2021/01/31 08:25:02;;;;;;;29.88;19.77;;;0.10;88.70;;;;;;5069754;28;20493;-68
2021/01/31 08:27:38;;;;;;;31.23;20.48;;;0.10;88.40;;;;;;5073360;28;20457;-68
2021/01/31 08:30:28;;;;;;;28.42;18.73;;;0.20;87.80;;;;;;5068886;28;20748;-68
2021/01/31 08:33:00;;;;;;;28.98;18.95;;;0.30;86.90;;;;;;5072588;28;20424;-68
2021/01/31 08:35:41;;;;;;;29.27;18.80;;;0.30;86.60;;;;;;5068746;28;20431;-68
2021/01/31 08:38:27;;;;;;;29.47;18.30;;;0.50;86.10;;;;;;5072215;28;20426;-68
2021/01/31 08:41:02;;;;;;;30.15;18.40;;;0.50;84.60;;;;;;5068540;28;20436;-68
2021/01/31 08:43:33;;;;;;;29.88;18.13;;;0.40;84.80;;;;;;5072048;28;20423;-67
2021/01/31 08:46:10;;;;;;;27.30;17.95;;;0.40;86.10;;;;;;5067683;28;20431;-67
2021/01/31 08:48:38;;;;;;;26.40;17.92;;;0.50;85.60;;;;;;5091963;28;20438;-68
2021/01/31 08:51:13;;;;;;;26.42;17.33;;;0.60;85.40;;;;;;5081418;28;20470;-68
2021/01/31 08:53:42;;;;;;;25.45;17.20;;;0.70;84.70;;;;;;5084149;28;20425;-68
2021/01/31 08:56:22;;;;;;;25.15;17.60;;;0.70;85.20;;;;;;5070969;28;20481;-67
2021/01/31 08:58:50;;;;;;;27.83;18.50;;;0.70;84.70;;;;;;5071824;28;20415;-67
2021/01/31 09:01:19;;;;;;;26.85;17.50;;;0.70;84.50;;;;;;5071767;28;20413;-67
2021/01/31 09:03:46;;;;;;;26.13;17.27;;;0.70;84.90;;;;;;5092621;28;21103;-67
2021/01/31 09:06:13;;;;;;;24.25;16.67;;;0.70;84.90;;;;;;5079686;28;20461;-68
2021/01/31 09:08:43;;;;;;;24.23;16.65;;;0.80;84.40;;;;;;5072765;28;20486;-67
2021/01/31 09:11:22;;;;;;;25.70;17.27;;;0.80;83.80;;;;;;5072637;28;20408;-69
2021/01/31 09:13:51;;;;;;;25.63;16.88;;;0.90;83.50;;;;;;5071745;28;20469;-68
2021/01/31 09:16:25;;;;;;;27.17;16.45;;;0.90;83.50;;;;;;5072551;28;20407;-68
2021/01/31 09:19:13;;;;;;;23.63;15.68;;;1.00;83.00;;;;;;5076035;28;20410;-68
2021/01/31 09:21:41;;;;;;;24.08;14.93;;;1.10;83.30;;;;;;5092200;28;20723;-67
2021/01/31 09:24:11;;;;;;;23.08;15.32;;;1.20;81.90;;;;;;5069021;28;20461;-68
2021/01/31 09:26:37;;;;;;;21.58;14.80;;;1.20;82.30;;;;;;5070906;28;20838;-67
2021/01/31 09:29:10;;;;;;;21.65;14.73;;;1.20;82.60;;;;;;5067489;28;20419;-68
2021/01/31 09:31:38;;;;;;;22.63;14.65;;;1.30;81.20;;;;;;5072380;28;20500;-68
2021/01/31 09:34:05;;;;;;;23.23;14.67;;;1.30;80.40;;;;;;5067633;28;20861;-68
2021/01/31 09:36:36;;;;;;;22.38;15.02;;;1.30;80.50;;;;;;5072481;28;20473;-68
2021/01/31 09:39:06;;;;;;;22.85;14.75;;;1.20;81.50;;;;;;5067405;28;20446;-68
2021/01/31 09:41:34;;;;;;;21.38;14.13;;;1.30;80.20;;;;;;5071896;28;20412;-68
2021/01/31 09:44:06;;;;;;;21.73;14.43;;;1.30;80.50;;;;;;5068196;28;20515;-68
2021/01/31 09:46:34;;;;;;;19.90;13.80;;;1.30;81.40;;;;;;5071827;28;20403;-68
2021/01/31 09:49:06;;;;;;;19.52;14.27;;;1.30;79.70;;;;;;5070263;28;20400;-68
2021/01/31 09:51:34;;;;;;;20.37;14.40;;;1.30;80.50;;;;;;5070871;28;20403;-68
2021/01/31 09:54:13;;;;;;;20.65;13.50;;;1.50;79.40;;;;;;5081346;28;20416;-68
2021/01/31 09:56:46;;;;;;;19.48;13.50;;;1.60;79.40;;;;;;5071249;28;20481;-68
2021/01/31 09:59:21;;;;;;;21.95;13.93;;;1.60;78.80;;;;;;5066509;28;20481;-68
2021/01/31 10:01:49;;;;;;;19.08;12.93;;;1.70;78.40;;;;;;5070913;28;20913;-68
2021/01/31 10:04:25;;;;;;;18.83;13.10;;;1.70;78.50;;;;;;5070857;28;20424;-68
2021/01/31 10:07:04;;;;;;;21.15;13.32;;;1.90;78.80;;;;;;5059094;28;20462;-69
2021/01/31 10:09:35;;;;;;;18.50;12.82;;;1.90;79.30;;;;;;5065189;28;20465;-68
2021/01/31 10:12:32;;;;;;;18.23;12.77;;;2.00;78.90;;;;;;5068813;28;20469;-68
2021/01/31 10:15:02;;;;;;;19.60;12.93;;;1.90;78.90;;;;;;5049252;28;20437;-68
2021/01/31 10:17:28;;;;;;;16.77;11.98;;;1.90;77.80;;;;;;5070874;28;20847;-68
2021/01/31 10:20:28;;;;;;;18.77;13.07;;;1.90;77.50;;;;;;5070455;28;20424;-68
2021/01/31 10:23:10;;;;;;;17.30;12.07;;;1.90;78.30;;;;;;5066712;28;20729;-68
2021/01/31 10:25:40;;;;;;;17.23;11.82;;;1.90;77.00;;;;;;5047801;28;20417;-68
2021/01/31 10:28:10;;;;;;;20.45;13.13;;;1.80;77.50;;;;;;5070147;28;20775;-68
2021/01/31 10:30:45;;;;;;;20.38;12.82;;;1.80;77.70;;;;;;5070023;28;20395;-68
2021/01/31 10:33:39;;;;;;;18.75;12.75;;;1.80;77.60;;;;;;5066171;28;21122;-68
2021/01/31 10:36:17;;;;;;;18.80;12.98;;;1.80;78.10;;;;;;5068399;28;20496;-68
2021/01/31 10:38:44;;;;;;;21.60;13.30;;;1.60;78.80;;;;;;5051060;28;20482;-68
2021/01/31 10:41:11;;;;;;;20.20;12.50;;;1.60;78.80;;;;;;5057827;28;20479;-68
2021/01/31 10:43:41;;;;;;;21.55;13.20;;;1.60;78.70;;;;;;5065939;28;20501;-68
2021/01/31 10:46:07;;;;;;;19.08;12.57;;;1.60;79.00;;;;;;5070619;28;20400;-68
2021/01/31 10:48:36;;;;;;;19.58;12.77;;;1.60;77.90;;;;;;5070714;28;20498;-70
2021/01/31 10:51:02;;;;;;;22.50;13.57;;;1.50;78.70;;;;;;5083212;28;20462;-68
2021/01/31 10:53:29;;;;;;;21.63;13.63;;;1.70;77.20;;;;;;5065227;28;20427;-68
2021/01/31 10:55:55;;;;;;;23.92;14.52;;;1.80;76.60;;;;;;5058800;28;20862;-68
2021/01/31 10:58:24;;;;;;;21.45;13.18;;;1.70;78.10;;;;;;5064555;28;20526;-68
2021/01/31 11:00:53;;;;;;;21.27;13.52;;;1.70;78.20;;;;;;5069708;28;20411;-68
2021/01/31 11:03:19;;;;;;;22.67;13.38;;;1.60;78.80;;;;;;5065291;28;20464;-68
2021/01/31 11:05:46;;;;;;;19.80;12.88;;;1.50;79.20;;;;;;5068036;28;20412;-68
2021/01/31 11:08:13;;;;;;;19.90;13.50;;;1.50;79.60;;;;;;5064681;28;20407;-68
2021/01/31 11:10:40;;;;;;;20.00;12.90;;;1.50;80.40;;;;;;5067685;28;20415;-68
2021/01/31 11:13:07;;;;;;;19.70;13.17;;;1.60;81.10;;;;;;5067790;28;20743;-68
2021/01/31 11:15:33;;;;;;;18.75;12.88;;;1.70;80.10;;;;;;5067517;28;20469;-68
2021/01/31 11:18:00;;;;;;;17.83;11.93;;;1.70;80.90;;;;;;5069169;28;20747;-68
2021/01/31 11:20:27;;;;;;;19.33;12.35;;;1.80;81.20;;;;;;5082092;28;20406;-68
2021/01/31 11:22:53;;;;;;;21.65;12.75;;;2.00;77.20;;;;;;5073167;28;20501;-68
2021/01/31 11:25:20;;;;;;;17.25;12.63;;;2.10;77.90;;;;;;5065986;28;20411;-68
2021/01/31 11:27:47;;;;;;;18.63;12.20;;;2.30;78.90;;;;;;5068577;28;20408;-68
2021/01/31 11:30:14;;;;;;;17.35;11.90;;;2.40;77.60;;;;;;5064944;28;20416;-68
2021/01/31 11:32:42;;;;;;;18.48;12.60;;;2.40;76.60;;;;;;5069279;28;20422;-68
2021/01/31 11:35:14;;;;;;;18.03;12.17;;;2.50;76.30;;;;;;5065350;28;20419;-68
2021/01/31 11:37:40;;;;;;;18.52;12.43;;;2.50;77.20;;;;;;5069413;28;20407;-68
2021/01/31 11:40:09;;;;;;;17.20;12.27;;;2.60;76.00;;;;;;5064723;28;20438;-68
2021/01/31 11:42:38;;;;;;;18.08;12.77;;;2.50;75.30;;;;;;5067789;28;20497;-67
2021/01/31 11:45:07;;;;;;;19.95;12.60;;;2.40;77.70;;;;;;5064997;28;20408;-68
2021/01/31 11:47:34;;;;;;;20.13;12.73;;;2.30;77.30;;;;;;5068670;28;20457;-67
2021/01/31 11:50:04;;;;;;;18.35;12.35;;;2.30;78.30;;;;;;5068137;28;20407;-67
2021/01/31 11:52:31;;;;;;;19.80;12.40;;;2.30;78.10;;;;;;5068826;28;20443;-68
2021/01/31 11:55:00;;;;;;;18.90;12.77;;;2.30;76.80;;;;;;5081200;28;20462;-68
2021/01/31 11:57:29;;;;;;;17.52;12.02;;;2.20;78.80;;;;;;5063411;28;20771;-69
2021/01/31 11:59:58;;;;;;;17.02;11.82;;;2.10;77.90;;;;;;5069185;28;20407;-69
2021/01/31 12:02:24;;;;;;;18.27;11.88;;;2.10;78.10;;;;;;5065331;28;20427;-69
2021/01/31 12:04:52;;;;;;;18.02;12.70;;;2.00;78.30;;;;;;5067983;28;20461;-69
2021/01/31 12:07:19;;;;;;;18.98;12.55;;;2.00;78.50;;;;;;5065164;28;20416;-69
2021/01/31 12:09:45;;;;;;;19.85;12.65;;;2.00;78.50;;;;;;5101026;28;20842;-69
2021/01/31 12:12:12;;;;;;;16.75;12.20;;;2.00;80.80;;;;;;5065327;28;20400;-69
2021/01/31 12:14:42;;;;;;;18.10;13.00;;;2.00;78.10;;;;;;5079078;28;20505;-69
2021/01/31 12:17:11;;;;;;;18.23;12.40;;;2.00;79.20;;;;;;5049280;28;20497;-69
2021/01/31 12:19:41;;;;;;;17.58;12.10;;;1.90;79.10;;;;;;5069091;28;20545;-69
2021/01/31 12:22:22;;;;;;;20.02;12.18;;;1.90;79.10;;;;;;5067482;28;20428;-69
2021/01/31 12:24:50;;;;;;;16.85;12.20;;;1.90;78.30;;;;;;5072311;28;20429;-69
2021/01/31 12:27:27;;;;;;;19.20;12.77;;;1.80;79.10;;;;;;5072507;28;20414;-69
2021/01/31 12:29:55;;;;;;;19.98;12.98;;;1.80;79.40;;;;;;5052276;28;20444;-68
2021/01/31 12:32:24;;;;;;;19.80;13.10;;;1.90;78.30;;;;;;5052886;28;20433;-69
2021/01/31 12:34:53;;;;;;;20.15;14.00;;;2.00;78.50;;;;;;5066943;28;20820;-69
2021/01/31 12:37:20;;;;;;;18.70;13.30;;;1.90;78.50;;;;;;5071648;28;20435;-68
2021/01/31 12:39:47;;;;;;;21.42;14.02;;;1.90;77.90;;;;;;5067376;28;20431;-69
2021/01/31 12:42:15;;;;;;;19.30;13.30;;;1.80;78.80;;;;;;5072529;28;20782;-69
2021/01/31 12:44:43;;;;;;;22.92;14.57;;;1.80;79.10;;;;;;5067392;28;20872;-69
2021/01/31 12:47:12;;;;;;;21.35;14.40;;;1.70;79.20;;;;;;5071166;28;20479;-69
2021/01/31 12:49:41;;;;;;;23.13;15.07;;;1.60;79.50;;;;;;5071190;28;20407;-69
2021/01/31 12:52:07;;;;;;;22.70;14.23;;;1.60;80.70;;;;;;5070683;28;20392;-69
2021/01/31 12:54:34;;;;;;;21.20;13.93;;;1.80;78.50;;;;;;5067069;28;21140;-69
2021/01/31 12:57:00;;;;;;;21.33;14.30;;;1.70;79.70;;;;;;5072073;28;20435;-68
2021/01/31 12:59:27;;;;;;;19.98;13.65;;;1.70;80.30;;;;;;5066807;28;20403;-69
2021/01/31 13:01:59;;;;;;;20.57;14.13;;;1.70;79.90;;;;;;5071508;28;20408;-69
2021/01/31 13:04:25;;;;;;;20.30;13.73;;;1.70;81.00;;;;;;5068865;28;20459;-69